UAL2208 KORD-KEWR
Flight info
| Callsign | UAL2208 |
|---|---|
| Flight time | 1h 32m |
| Altitude | 39000 |
| Route | DUFEE ELX HAAKK DOXXY SOSIC KEEHO J584 SLT FQM3 |
| Aircraft | B772/H-SDE2E3FGHIJ5LORVWXY/A1EDE9 |
Departure
| Time | 2026-04-23 22:58 |
|---|---|
| Airport | Chicago O'Hare International Airport (KORD) |
Arrival
| Time | 2026-04-24 00:30 |
|---|---|
| Airport | Newark Liberty International Airport (KEWR) |
| Time | Latitude | Longitude | Altitude | Speed | Heading |
|---|---|---|---|---|---|
| 2026-04-23 21:58 | 41.97952 | -87.91109 | 671 ft | 0 kts | 110° |
| 2026-04-23 22:38 | 41.97954 | -87.91116 | 671 ft | 1 kts | 81° |
| 2026-04-23 22:38 | 41.97951 | -87.91135 | 671 ft | 2 kts | 90° |
| 2026-04-23 22:38 | 41.97953 | -87.91156 | 671 ft | 2 kts | 104° |
| 2026-04-23 22:38 | 41.97956 | -87.91175 | 671 ft | 2 kts | 101° |
| 2026-04-23 22:39 | 41.97959 | -87.91195 | 671 ft | 2 kts | 99° |
| 2026-04-23 22:39 | 41.97961 | -87.91215 | 671 ft | 2 kts | 100° |
| 2026-04-23 22:39 | 41.97966 | -87.91233 | 671 ft | 2 kts | 145° |
| 2026-04-23 22:39 | 41.97980 | -87.91238 | 671 ft | 2 kts | 198° |
| 2026-04-23 22:40 | 41.97993 | -87.91228 | 671 ft | 2 kts | 216° |
| 2026-04-23 22:40 | 41.98006 | -87.91217 | 671 ft | 2 kts | 210° |
| 2026-04-23 22:40 | 41.98018 | -87.91208 | 671 ft | 0 kts | 209° |
| 2026-04-23 22:43 | 41.98004 | -87.91225 | 671 ft | 5 kts | 235° |
| 2026-04-23 22:44 | 41.98000 | -87.91272 | 671 ft | 4 kts | 292° |
| 2026-04-23 22:44 | 41.98007 | -87.91336 | 671 ft | 9 kts | 262° |
| 2026-04-23 22:44 | 41.97975 | -87.91411 | 673 ft | 9 kts | 225° |
| 2026-04-23 22:44 | 41.97919 | -87.91450 | 674 ft | 9 kts | 192° |
| 2026-04-23 22:45 | 41.97854 | -87.91465 | 674 ft | 9 kts | 189° |
| 2026-04-23 22:45 | 41.97797 | -87.91477 | 674 ft | 7 kts | 189° |
| 2026-04-23 22:45 | 41.97745 | -87.91489 | 674 ft | 6 kts | 189° |
| 2026-04-23 22:45 | 41.97701 | -87.91499 | 674 ft | 6 kts | 189° |
| 2026-04-23 22:46 | 41.97653 | -87.91505 | 674 ft | 7 kts | 178° |
| 2026-04-23 22:46 | 41.97592 | -87.91494 | 674 ft | 9 kts | 172° |
| 2026-04-23 22:46 | 41.97522 | -87.91480 | 674 ft | 11 kts | 171° |
| 2026-04-23 22:46 | 41.97437 | -87.91464 | 674 ft | 13 kts | 172° |
| 2026-04-23 22:47 | 41.97344 | -87.91460 | 674 ft | 13 kts | 199° |
| 2026-04-23 22:47 | 41.97250 | -87.91489 | 674 ft | 14 kts | 186° |
| 2026-04-23 22:47 | 41.97161 | -87.91437 | 674 ft | 15 kts | 114° |
| 2026-04-23 22:47 | 41.97156 | -87.91286 | 674 ft | 16 kts | 89° |
| 2026-04-23 22:48 | 41.97157 | -87.91158 | 674 ft | 10 kts | 89° |
| 2026-04-23 22:48 | 41.97158 | -87.91074 | 674 ft | 9 kts | 89° |
| 2026-04-23 22:48 | 41.97158 | -87.90985 | 674 ft | 8 kts | 89° |
| 2026-04-23 22:48 | 41.97159 | -87.90916 | 674 ft | 5 kts | 89° |
| 2026-04-23 22:49 | 41.97159 | -87.90856 | 674 ft | 8 kts | 90° |
| 2026-04-23 22:49 | 41.97158 | -87.90765 | 674 ft | 9 kts | 94° |
| 2026-04-23 22:49 | 41.97152 | -87.90658 | 674 ft | 12 kts | 95° |
| 2026-04-23 22:49 | 41.97144 | -87.90528 | 672 ft | 13 kts | 94° |
| 2026-04-23 22:50 | 41.97138 | -87.90400 | 671 ft | 12 kts | 94° |
| 2026-04-23 22:50 | 41.97136 | -87.90290 | 670 ft | 9 kts | 89° |
| 2026-04-23 22:50 | 41.97137 | -87.90196 | 669 ft | 11 kts | 90° |
| 2026-04-23 22:50 | 41.97137 | -87.90114 | 667 ft | 7 kts | 90° |
| 2026-04-23 22:51 | 41.97136 | -87.90037 | 667 ft | 9 kts | 90° |
| 2026-04-23 22:51 | 41.97139 | -87.89925 | 667 ft | 14 kts | 83° |
| 2026-04-23 22:51 | 41.97168 | -87.89790 | 664 ft | 14 kts | 63° |
| 2026-04-23 22:51 | 41.97214 | -87.89672 | 662 ft | 13 kts | 63° |
| 2026-04-23 22:52 | 41.97235 | -87.89567 | 662 ft | 9 kts | 116° |
| 2026-04-23 22:52 | 41.97213 | -87.89521 | 662 ft | 2 kts | 123° |
| 2026-04-23 22:52 | 41.97203 | -87.89494 | 662 ft | 7 kts | 110° |
| 2026-04-23 22:52 | 41.97194 | -87.89380 | 662 ft | 13 kts | 91° |
| 2026-04-23 22:53 | 41.97194 | -87.89266 | 662 ft | 9 kts | 89° |
| 2026-04-23 22:53 | 41.97194 | -87.89178 | 661 ft | 12 kts | 90° |
| 2026-04-23 22:53 | 41.97194 | -87.89012 | 661 ft | 22 kts | 90° |
| 2026-04-23 22:53 | 41.97195 | -87.88824 | 661 ft | 17 kts | 90° |
| 2026-04-23 22:54 | 41.97195 | -87.88670 | 661 ft | 15 kts | 90° |
| 2026-04-23 22:54 | 41.97194 | -87.88538 | 661 ft | 13 kts | 91° |
| 2026-04-23 22:54 | 41.97178 | -87.88428 | 661 ft | 11 kts | 103° |
| 2026-04-23 22:54 | 41.97170 | -87.88339 | 661 ft | 6 kts | 92° |
| 2026-04-23 22:55 | 41.97170 | -87.88272 | 660 ft | 7 kts | 90° |
| 2026-04-23 22:55 | 41.97170 | -87.88221 | 659 ft | 4 kts | 90° |
| 2026-04-23 22:55 | 41.97171 | -87.88139 | 658 ft | 12 kts | 89° |
| 2026-04-23 22:55 | 41.97146 | -87.88052 | 658 ft | 6 kts | 149° |
| 2026-04-23 22:56 | 41.97122 | -87.88040 | 658 ft | 2 kts | 169° |
| 2026-04-23 22:56 | 41.97066 | -87.88035 | 658 ft | 12 kts | 178° |
| 2026-04-23 22:56 | 41.96993 | -87.88032 | 659 ft | 6 kts | 179° |
| 2026-04-23 22:56 | 41.96960 | -87.88036 | 658 ft | 6 kts | 192° |
| 2026-04-23 22:57 | 41.96921 | -87.88066 | 659 ft | 4 kts | 219° |
| 2026-04-23 22:57 | 41.96869 | -87.88125 | 660 ft | 31 kts | 221° |
| 2026-04-23 22:57 | 41.96557 | -87.88495 | 662 ft | 88 kts | 221° |
| 2026-04-23 22:57 | 41.95966 | -87.89189 | 668 ft | 134 kts | 219° |
| 2026-04-23 22:58 | 41.95253 | -87.90022 | 1085 ft | 138 kts | 218° |
| 2026-04-23 22:58 | 41.94471 | -87.90861 | 1784 ft | 147 kts | 215° |
| 2026-04-23 22:58 | 41.93686 | -87.91688 | 2232 ft | 147 kts | 216° |
| 2026-04-23 22:58 | 41.92800 | -87.92501 | 2426 ft | 155 kts | 198° |
| 2026-04-23 22:59 | 41.91721 | -87.92435 | 2671 ft | 168 kts | 155° |
| 2026-04-23 22:59 | 41.90866 | -87.91290 | 2924 ft | 189 kts | 123° |
| 2026-04-23 22:59 | 41.90646 | -87.89425 | 3060 ft | 223 kts | 85° |
| 2026-04-23 22:59 | 41.91097 | -87.87328 | 3282 ft | 243 kts | 77° |
| 2026-04-23 23:00 | 41.91649 | -87.85111 | 3540 ft | 260 kts | 76° |
| 2026-04-23 23:00 | 41.92250 | -87.82711 | 3846 ft | 277 kts | 76° |
| 2026-04-23 23:00 | 41.92871 | -87.80244 | 4369 ft | 284 kts | 75° |
| 2026-04-23 23:00 | 41.93500 | -87.77746 | 4995 ft | 286 kts | 75° |
| 2026-04-23 23:01 | 41.94139 | -87.75211 | 5610 ft | 289 kts | 75° |
| 2026-04-23 23:01 | 41.94779 | -87.72667 | 6232 ft | 291 kts | 74° |
| 2026-04-23 23:01 | 41.95423 | -87.70105 | 6851 ft | 293 kts | 74° |
| 2026-04-23 23:01 | 41.96074 | -87.67512 | 7447 ft | 296 kts | 73° |
| 2026-04-23 23:02 | 41.96729 | -87.64902 | 8066 ft | 298 kts | 73° |
| 2026-04-23 23:02 | 41.97395 | -87.62245 | 8663 ft | 300 kts | 73° |
| 2026-04-23 23:02 | 41.98063 | -87.59577 | 9246 ft | 303 kts | 72° |
| 2026-04-23 23:02 | 41.98730 | -87.56911 | 9851 ft | 305 kts | 72° |
| 2026-04-23 23:03 | 41.99411 | -87.54183 | 10359 ft | 313 kts | 72° |
| 2026-04-23 23:03 | 42.00118 | -87.51350 | 10689 ft | 330 kts | 72° |
| 2026-04-23 23:03 | 42.00862 | -87.48363 | 10958 ft | 347 kts | 72° |
| 2026-04-23 23:03 | 42.01646 | -87.45214 | 11329 ft | 363 kts | 72° |
| 2026-04-23 23:04 | 42.02458 | -87.41946 | 11801 ft | 378 kts | 71° |
| 2026-04-23 23:04 | 42.03301 | -87.38555 | 12215 ft | 392 kts | 71° |
| 2026-04-23 23:04 | 42.04171 | -87.35047 | 12938 ft | 400 kts | 71° |
| 2026-04-23 23:04 | 42.05047 | -87.31512 | 13769 ft | 403 kts | 71° |
| 2026-04-23 23:05 | 42.05929 | -87.27945 | 14629 ft | 407 kts | 71° |
| 2026-04-23 23:05 | 42.06829 | -87.24300 | 15485 ft | 412 kts | 71° |
| 2026-04-23 23:05 | 42.07732 | -87.20641 | 16316 ft | 417 kts | 71° |
| 2026-04-23 23:05 | 42.08646 | -87.16930 | 17136 ft | 421 kts | 71° |
| 2026-04-23 23:06 | 42.09552 | -87.13242 | 17979 ft | 423 kts | 71° |
| 2026-04-23 23:06 | 42.10487 | -87.09428 | 18721 ft | 428 kts | 72° |
| 2026-04-23 23:06 | 42.11166 | -87.05548 | 19317 ft | 436 kts | 81° |
| 2026-04-23 23:06 | 42.11430 | -87.01485 | 19943 ft | 442 kts | 86° |
| 2026-04-23 23:07 | 42.11592 | -86.97327 | 20621 ft | 447 kts | 86° |
| 2026-04-23 23:07 | 42.11745 | -86.93158 | 21254 ft | 452 kts | 86° |
| 2026-04-23 23:07 | 42.11900 | -86.88935 | 21859 ft | 457 kts | 87° |
| 2026-04-23 23:07 | 42.12055 | -86.84623 | 22475 ft | 461 kts | 87° |
| 2026-04-23 23:08 | 42.12209 | -86.80331 | 23040 ft | 467 kts | 87° |
| 2026-04-23 23:08 | 42.12365 | -86.75953 | 23632 ft | 471 kts | 87° |
| 2026-04-23 23:08 | 42.12520 | -86.71525 | 24219 ft | 475 kts | 87° |
| 2026-04-23 23:08 | 42.12674 | -86.67100 | 24806 ft | 479 kts | 87° |
| 2026-04-23 23:09 | 42.12828 | -86.62614 | 25351 ft | 483 kts | 87° |
| 2026-04-23 23:09 | 42.12983 | -86.58070 | 25915 ft | 487 kts | 87° |
| 2026-04-23 23:09 | 42.13134 | -86.53570 | 26440 ft | 491 kts | 86° |
| 2026-04-23 23:09 | 42.13287 | -86.48965 | 26962 ft | 496 kts | 86° |
| 2026-04-23 23:10 | 42.13439 | -86.44343 | 27507 ft | 499 kts | 86° |
| 2026-04-23 23:10 | 42.13591 | -86.39653 | 28027 ft | 504 kts | 86° |
| 2026-04-23 23:10 | 42.13742 | -86.34946 | 28542 ft | 508 kts | 87° |
| 2026-04-23 23:10 | 42.13894 | -86.30139 | 29033 ft | 512 kts | 87° |
| 2026-04-23 23:11 | 42.14042 | -86.25399 | 29633 ft | 514 kts | 87° |
| 2026-04-23 23:11 | 42.14190 | -86.20578 | 30377 ft | 512 kts | 87° |
| 2026-04-23 23:11 | 42.14334 | -86.15826 | 31166 ft | 509 kts | 87° |
| 2026-04-23 23:11 | 42.14474 | -86.11101 | 31921 ft | 507 kts | 88° |
| 2026-04-23 23:12 | 42.14484 | -86.06339 | 32576 ft | 506 kts | 90° |
| 2026-04-23 23:12 | 42.14438 | -86.01590 | 33220 ft | 505 kts | 90° |
| 2026-04-23 23:12 | 42.14391 | -85.96873 | 33827 ft | 505 kts | 90° |
| 2026-04-23 23:12 | 42.14348 | -85.92223 | 34496 ft | 504 kts | 90° |
| 2026-04-23 23:13 | 42.14303 | -85.87463 | 35170 ft | 503 kts | 90° |
| 2026-04-23 23:13 | 42.14261 | -85.82796 | 35903 ft | 500 kts | 90° |
| 2026-04-23 23:13 | 42.14218 | -85.78166 | 36591 ft | 498 kts | 90° |
| 2026-04-23 23:13 | 42.14175 | -85.73557 | 37158 ft | 497 kts | 90° |
| 2026-04-23 23:14 | 42.14130 | -85.68881 | 37597 ft | 498 kts | 90° |
| 2026-04-23 23:14 | 42.14085 | -85.64215 | 38013 ft | 499 kts | 90° |
| 2026-04-23 23:14 | 42.14037 | -85.59549 | 38538 ft | 498 kts | 90° |
| 2026-04-23 23:14 | 42.13989 | -85.54936 | 38917 ft | 498 kts | 90° |
| 2026-04-23 23:15 | 42.13939 | -85.50291 | 38908 ft | 501 kts | 90° |
| 2026-04-23 23:15 | 42.13834 | -85.40973 | 38909 ft | 498 kts | 90° |
| 2026-04-23 23:16 | 42.13721 | -85.31658 | 38903 ft | 496 kts | 91° |
| 2026-04-23 23:16 | 42.13602 | -85.22387 | 38908 ft | 497 kts | 91° |
| 2026-04-23 23:17 | 42.13229 | -85.13169 | 38912 ft | 497 kts | 94° |
| 2026-04-23 23:17 | 42.12717 | -85.03886 | 38915 ft | 497 kts | 94° |
| 2026-04-23 23:18 | 42.12197 | -84.94604 | 38915 ft | 497 kts | 94° |
| 2026-04-23 23:18 | 42.11672 | -84.85355 | 38918 ft | 498 kts | 94° |
| 2026-04-23 23:19 | 42.11136 | -84.76061 | 38919 ft | 498 kts | 94° |
| 2026-04-23 23:19 | 42.10596 | -84.66821 | 38923 ft | 499 kts | 94° |
| 2026-04-23 23:20 | 42.10048 | -84.57566 | 38924 ft | 498 kts | 94° |
| 2026-04-23 23:20 | 42.09490 | -84.48270 | 38924 ft | 498 kts | 94° |
| 2026-04-23 23:21 | 42.08929 | -84.39054 | 38921 ft | 498 kts | 94° |
| 2026-04-23 23:21 | 42.08353 | -84.29714 | 38912 ft | 499 kts | 95° |
| 2026-04-23 23:22 | 42.07772 | -84.20419 | 38909 ft | 499 kts | 95° |
| 2026-04-23 23:22 | 42.07185 | -84.11157 | 38907 ft | 500 kts | 95° |
| 2026-04-23 23:23 | 42.06589 | -84.01867 | 38912 ft | 499 kts | 95° |
| 2026-04-23 23:23 | 42.05985 | -83.92564 | 38912 ft | 500 kts | 95° |
| 2026-04-23 23:24 | 42.05370 | -83.83232 | 38914 ft | 499 kts | 95° |
| 2026-04-23 23:24 | 42.04752 | -83.73950 | 38919 ft | 499 kts | 94° |
| 2026-04-23 23:25 | 42.04126 | -83.64663 | 38922 ft | 500 kts | 95° |
| 2026-04-23 23:25 | 42.03492 | -83.55383 | 38919 ft | 500 kts | 94° |
| 2026-04-23 23:26 | 42.02848 | -83.46053 | 38918 ft | 500 kts | 94° |
| 2026-04-23 23:26 | 42.02201 | -83.36789 | 38922 ft | 502 kts | 94° |
| 2026-04-23 23:27 | 42.01539 | -83.27435 | 38917 ft | 502 kts | 95° |
| 2026-04-23 23:27 | 42.00877 | -83.18183 | 38918 ft | 502 kts | 95° |
| 2026-04-23 23:28 | 42.00203 | -83.08857 | 38921 ft | 501 kts | 95° |
| 2026-04-23 23:28 | 41.99524 | -82.99579 | 38914 ft | 502 kts | 95° |
| 2026-04-23 23:29 | 41.98837 | -82.90305 | 38913 ft | 500 kts | 95° |
| 2026-04-23 23:29 | 41.98143 | -82.81029 | 38912 ft | 502 kts | 94° |
| 2026-04-23 23:30 | 41.97441 | -82.71750 | 38917 ft | 501 kts | 95° |
| 2026-04-23 23:30 | 41.96729 | -82.62437 | 38915 ft | 502 kts | 95° |
| 2026-04-23 23:31 | 41.96008 | -82.53104 | 38919 ft | 503 kts | 95° |
| 2026-04-23 23:31 | 41.95285 | -82.43846 | 38923 ft | 503 kts | 94° |
| 2026-04-23 23:32 | 41.94541 | -82.34423 | 38919 ft | 503 kts | 95° |
| 2026-04-23 23:32 | 41.94012 | -82.27786 | 38913 ft | 502 kts | 95° |
| 2026-04-23 23:33 | 41.93346 | -82.19489 | 38915 ft | 503 kts | 95° |
| 2026-04-23 23:33 | 41.92586 | -82.10127 | 38921 ft | 502 kts | 95° |
| 2026-04-23 23:34 | 41.91828 | -82.00874 | 38926 ft | 503 kts | 95° |
| 2026-04-23 23:34 | 41.91058 | -81.91566 | 38927 ft | 503 kts | 95° |
| 2026-04-23 23:35 | 41.90282 | -81.82291 | 38919 ft | 503 kts | 95° |
| 2026-04-23 23:35 | 41.89493 | -81.72938 | 38912 ft | 503 kts | 95° |
| 2026-04-23 23:36 | 41.88706 | -81.63699 | 38924 ft | 503 kts | 95° |
| 2026-04-23 23:36 | 41.87906 | -81.54413 | 38932 ft | 503 kts | 95° |
| 2026-04-23 23:37 | 41.87097 | -81.45094 | 38931 ft | 503 kts | 95° |
| 2026-04-23 23:37 | 41.86286 | -81.35854 | 38935 ft | 503 kts | 94° |
| 2026-04-23 23:38 | 41.85464 | -81.26573 | 38934 ft | 503 kts | 95° |
| 2026-04-23 23:38 | 41.84630 | -81.17234 | 38919 ft | 504 kts | 95° |
| 2026-04-23 23:39 | 41.83796 | -81.07989 | 38920 ft | 503 kts | 95° |
| 2026-04-23 23:39 | 41.82947 | -80.98666 | 38924 ft | 504 kts | 95° |
| 2026-04-23 23:40 | 41.82095 | -80.89391 | 38942 ft | 504 kts | 95° |
| 2026-04-23 23:40 | 41.81235 | -80.80107 | 38952 ft | 504 kts | 95° |
| 2026-04-23 23:41 | 41.80364 | -80.70800 | 38966 ft | 504 kts | 95° |
| 2026-04-23 23:41 | 41.79488 | -80.61510 | 38965 ft | 504 kts | 95° |
| 2026-04-23 23:42 | 41.78605 | -80.52237 | 38955 ft | 504 kts | 94° |
| 2026-04-23 23:42 | 41.77710 | -80.42913 | 38955 ft | 504 kts | 94° |
| 2026-04-23 23:43 | 41.76814 | -80.33656 | 38959 ft | 503 kts | 95° |
| 2026-04-23 23:43 | 41.75906 | -80.24362 | 38952 ft | 503 kts | 95° |
| 2026-04-23 23:44 | 41.74995 | -80.15121 | 38961 ft | 505 kts | 95° |
| 2026-04-23 23:44 | 41.74077 | -80.05881 | 38964 ft | 504 kts | 95° |
| 2026-04-23 23:45 | 41.73145 | -79.96570 | 38961 ft | 505 kts | 95° |
| 2026-04-23 23:45 | 41.72209 | -79.87307 | 38961 ft | 504 kts | 95° |
| 2026-04-23 23:46 | 41.71266 | -79.78049 | 38963 ft | 503 kts | 95° |
| 2026-04-23 23:46 | 41.70309 | -79.68727 | 38964 ft | 504 kts | 95° |
| 2026-04-23 23:47 | 41.69352 | -79.59485 | 38965 ft | 503 kts | 94° |
| 2026-04-23 23:47 | 41.68392 | -79.50285 | 38970 ft | 503 kts | 95° |
| 2026-04-23 23:48 | 41.67424 | -79.41077 | 38969 ft | 502 kts | 94° |
| 2026-04-23 23:48 | 41.66440 | -79.31794 | 38961 ft | 502 kts | 95° |
| 2026-04-23 23:49 | 41.64964 | -79.18002 | 38966 ft | 503 kts | 95° |
| 2026-04-23 23:49 | 41.63967 | -79.08784 | 38960 ft | 502 kts | 95° |
| 2026-04-23 23:50 | 41.62965 | -78.99581 | 38961 ft | 503 kts | 95° |
| 2026-04-23 23:50 | 41.61952 | -78.90350 | 38965 ft | 502 kts | 95° |
| 2026-04-23 23:51 | 41.60938 | -78.81178 | 38963 ft | 501 kts | 95° |
| 2026-04-23 23:51 | 41.59919 | -78.72033 | 38969 ft | 502 kts | 95° |
| 2026-04-23 23:52 | 41.58885 | -78.62821 | 38973 ft | 502 kts | 95° |
| 2026-04-23 23:52 | 41.57844 | -78.53616 | 38973 ft | 502 kts | 94° |
| 2026-04-23 23:53 | 41.56802 | -78.44463 | 38971 ft | 502 kts | 95° |
| 2026-04-23 23:53 | 41.55746 | -78.35259 | 38969 ft | 503 kts | 94° |
| 2026-04-23 23:54 | 41.54687 | -78.26091 | 38960 ft | 502 kts | 95° |
| 2026-04-23 23:54 | 41.53614 | -78.16878 | 38958 ft | 504 kts | 95° |
| 2026-04-23 23:55 | 41.52531 | -78.07633 | 38960 ft | 504 kts | 95° |
| 2026-04-23 23:55 | 41.51453 | -77.98520 | 38629 ft | 494 kts | 95° |
| 2026-04-23 23:56 | 41.50908 | -77.94035 | 37730 ft | 498 kts | 96° |
| 2026-04-23 23:56 | 41.50261 | -77.89428 | 36611 ft | 507 kts | 96° |
| 2026-04-23 23:56 | 41.49599 | -77.84817 | 35602 ft | 512 kts | 96° |
| 2026-04-23 23:56 | 41.48931 | -77.80166 | 34673 ft | 515 kts | 96° |
| 2026-04-23 23:57 | 41.48261 | -77.75495 | 33823 ft | 517 kts | 96° |
| 2026-04-23 23:57 | 41.47586 | -77.70790 | 33017 ft | 519 kts | 97° |
| 2026-04-23 23:57 | 41.46906 | -77.66058 | 32118 ft | 523 kts | 97° |
| 2026-04-23 23:57 | 41.46222 | -77.61298 | 31077 ft | 530 kts | 97° |
| 2026-04-23 23:58 | 41.45534 | -77.56529 | 30298 ft | 530 kts | 97° |
| 2026-04-23 23:58 | 41.44839 | -77.51727 | 29767 ft | 524 kts | 97° |
| 2026-04-23 23:58 | 41.44157 | -77.47033 | 29408 ft | 515 kts | 97° |
| 2026-04-23 23:58 | 41.43479 | -77.42372 | 29085 ft | 511 kts | 97° |
| 2026-04-23 23:59 | 41.42801 | -77.37711 | 28746 ft | 514 kts | 97° |
| 2026-04-23 23:59 | 41.42123 | -77.33066 | 28394 ft | 513 kts | 98° |
| 2026-04-23 23:59 | 41.41442 | -77.28418 | 28039 ft | 510 kts | 98° |
| 2026-04-23 23:59 | 41.40767 | -77.23819 | 27702 ft | 507 kts | 98° |
| 2026-04-24 00:00 | 41.40097 | -77.19279 | 27371 ft | 504 kts | 98° |
| 2026-04-24 00:00 | 41.39423 | -77.14709 | 27040 ft | 503 kts | 98° |
| 2026-04-24 00:00 | 41.38747 | -77.10143 | 26709 ft | 501 kts | 98° |
| 2026-04-24 00:00 | 41.38083 | -77.05671 | 26388 ft | 498 kts | 98° |
| 2026-04-24 00:01 | 41.37406 | -77.01131 | 26063 ft | 496 kts | 98° |
| 2026-04-24 00:01 | 41.36738 | -76.96655 | 25741 ft | 494 kts | 98° |
| 2026-04-24 00:01 | 41.36076 | -76.92237 | 25421 ft | 492 kts | 98° |
| 2026-04-24 00:01 | 41.35410 | -76.87800 | 25099 ft | 489 kts | 98° |
| 2026-04-24 00:02 | 41.34748 | -76.83405 | 24777 ft | 486 kts | 98° |
| 2026-04-24 00:02 | 41.34068 | -76.78977 | 24444 ft | 485 kts | 100° |
| 2026-04-24 00:02 | 41.33102 | -76.74712 | 24137 ft | 484 kts | 106° |
| 2026-04-24 00:02 | 41.31998 | -76.70511 | 23828 ft | 484 kts | 107° |
| 2026-04-24 00:03 | 41.30867 | -76.66270 | 23513 ft | 484 kts | 107° |
| 2026-04-24 00:03 | 41.29750 | -76.62094 | 23199 ft | 481 kts | 107° |
| 2026-04-24 00:03 | 41.28634 | -76.57925 | 22909 ft | 478 kts | 107° |
| 2026-04-24 00:03 | 41.27520 | -76.53773 | 22608 ft | 476 kts | 107° |
| 2026-04-24 00:04 | 41.26418 | -76.49672 | 22300 ft | 475 kts | 107° |
| 2026-04-24 00:04 | 41.25297 | -76.45509 | 21983 ft | 473 kts | 107° |
| 2026-04-24 00:04 | 41.24209 | -76.41472 | 21682 ft | 470 kts | 107° |
| 2026-04-24 00:04 | 41.23105 | -76.37383 | 21375 ft | 468 kts | 107° |
| 2026-04-24 00:05 | 41.22011 | -76.33337 | 21068 ft | 466 kts | 108° |
| 2026-04-24 00:05 | 41.20920 | -76.29309 | 20761 ft | 466 kts | 108° |
| 2026-04-24 00:05 | 41.19823 | -76.25269 | 20660 ft | 461 kts | 107° |
| 2026-04-24 00:05 | 41.18740 | -76.21281 | 20658 ft | 463 kts | 108° |
| 2026-04-24 00:06 | 41.17638 | -76.17230 | 20614 ft | 466 kts | 107° |
| 2026-04-24 00:06 | 41.16537 | -76.13193 | 20222 ft | 468 kts | 107° |
| 2026-04-24 00:06 | 41.15440 | -76.09180 | 19606 ft | 466 kts | 107° |
| 2026-04-24 00:06 | 41.14341 | -76.05160 | 18917 ft | 465 kts | 107° |
| 2026-04-24 00:07 | 41.13247 | -76.01173 | 18433 ft | 458 kts | 107° |
| 2026-04-24 00:07 | 41.12170 | -75.97254 | 18061 ft | 448 kts | 107° |
| 2026-04-24 00:07 | 41.11104 | -75.93378 | 17716 ft | 444 kts | 107° |
| 2026-04-24 00:07 | 41.10056 | -75.89574 | 17372 ft | 443 kts | 107° |
| 2026-04-24 00:08 | 41.09001 | -75.85746 | 17004 ft | 441 kts | 107° |
| 2026-04-24 00:08 | 41.07944 | -75.81921 | 16618 ft | 436 kts | 106° |
| 2026-04-24 00:08 | 41.06910 | -75.78186 | 16232 ft | 432 kts | 106° |
| 2026-04-24 00:08 | 41.05888 | -75.74498 | 15862 ft | 429 kts | 106° |
| 2026-04-24 00:09 | 41.04856 | -75.70777 | 15443 ft | 425 kts | 106° |
| 2026-04-24 00:09 | 41.03848 | -75.67152 | 15060 ft | 421 kts | 105° |
| 2026-04-24 00:09 | 41.02844 | -75.63543 | 14681 ft | 419 kts | 105° |
| 2026-04-24 00:09 | 41.01841 | -75.59943 | 14290 ft | 417 kts | 105° |
| 2026-04-24 00:10 | 41.00835 | -75.56339 | 13899 ft | 411 kts | 105° |
| 2026-04-24 00:10 | 40.99854 | -75.52827 | 13548 ft | 410 kts | 105° |
| 2026-04-24 00:10 | 40.98866 | -75.49288 | 13166 ft | 408 kts | 105° |
| 2026-04-24 00:10 | 40.97895 | -75.45818 | 12822 ft | 407 kts | 105° |
| 2026-04-24 00:11 | 40.96904 | -75.42284 | 12436 ft | 402 kts | 105° |
| 2026-04-24 00:11 | 40.95950 | -75.38889 | 12079 ft | 394 kts | 105° |
| 2026-04-24 00:11 | 40.95003 | -75.35521 | 11715 ft | 387 kts | 105° |
| 2026-04-24 00:11 | 40.94072 | -75.32215 | 11371 ft | 380 kts | 106° |
| 2026-04-24 00:12 | 40.93166 | -75.28998 | 11002 ft | 374 kts | 106° |
| 2026-04-24 00:12 | 40.92258 | -75.25783 | 10648 ft | 367 kts | 107° |
| 2026-04-24 00:12 | 40.91376 | -75.22656 | 10375 ft | 361 kts | 107° |
| 2026-04-24 00:12 | 40.90511 | -75.19597 | 10053 ft | 356 kts | 107° |
| 2026-04-24 00:13 | 40.89646 | -75.16541 | 9663 ft | 353 kts | 107° |
| 2026-04-24 00:13 | 40.88801 | -75.13561 | 9302 ft | 337 kts | 107° |
| 2026-04-24 00:13 | 40.88005 | -75.10761 | 9072 ft | 320 kts | 108° |
| 2026-04-24 00:13 | 40.87228 | -75.08009 | 8759 ft | 318 kts | 107° |
| 2026-04-24 00:14 | 40.86461 | -75.05280 | 8401 ft | 318 kts | 108° |
| 2026-04-24 00:14 | 40.85695 | -75.02563 | 8069 ft | 314 kts | 107° |
| 2026-04-24 00:14 | 40.84947 | -74.99918 | 7800 ft | 307 kts | 107° |
| 2026-04-24 00:14 | 40.84202 | -74.97287 | 7519 ft | 300 kts | 108° |
| 2026-04-24 00:15 | 40.83483 | -74.94749 | 7250 ft | 294 kts | 107° |
| 2026-04-24 00:15 | 40.82765 | -74.92217 | 6987 ft | 294 kts | 108° |
| 2026-04-24 00:15 | 40.81877 | -74.89841 | 6837 ft | 291 kts | 127° |
| 2026-04-24 00:15 | 40.80434 | -74.87921 | 6821 ft | 296 kts | 137° |
| 2026-04-24 00:16 | 40.78927 | -74.86104 | 6819 ft | 294 kts | 138° |
| 2026-04-24 00:16 | 40.77416 | -74.84280 | 6789 ft | 294 kts | 137° |
| 2026-04-24 00:16 | 40.75893 | -74.82443 | 6744 ft | 295 kts | 137° |
| 2026-04-24 00:16 | 40.74388 | -74.80634 | 6766 ft | 295 kts | 138° |
| 2026-04-24 00:17 | 40.72863 | -74.78811 | 6726 ft | 296 kts | 137° |
| 2026-04-24 00:17 | 40.71337 | -74.76997 | 6691 ft | 296 kts | 137° |
| 2026-04-24 00:17 | 40.69798 | -74.75167 | 6669 ft | 296 kts | 138° |
| 2026-04-24 00:17 | 40.68290 | -74.73362 | 6668 ft | 295 kts | 137° |
| 2026-04-24 00:18 | 40.66767 | -74.71539 | 6667 ft | 296 kts | 137° |
| 2026-04-24 00:18 | 40.65231 | -74.69706 | 6667 ft | 296 kts | 137° |
| 2026-04-24 00:18 | 40.63720 | -74.67900 | 6666 ft | 296 kts | 137° |
| 2026-04-24 00:18 | 40.62191 | -74.66070 | 6666 ft | 297 kts | 137° |
| 2026-04-24 00:19 | 40.60661 | -74.64233 | 6665 ft | 295 kts | 137° |
| 2026-04-24 00:19 | 40.59157 | -74.62430 | 6668 ft | 296 kts | 137° |
| 2026-04-24 00:19 | 40.57629 | -74.60603 | 6671 ft | 296 kts | 137° |
| 2026-04-24 00:19 | 40.56117 | -74.58801 | 6672 ft | 297 kts | 137° |
| 2026-04-24 00:20 | 40.54586 | -74.56978 | 6675 ft | 297 kts | 137° |
| 2026-04-24 00:20 | 40.53046 | -74.55150 | 6669 ft | 295 kts | 137° |
| 2026-04-24 00:20 | 40.51555 | -74.53376 | 6641 ft | 283 kts | 137° |
| 2026-04-24 00:20 | 40.50122 | -74.51670 | 6570 ft | 274 kts | 137° |
| 2026-04-24 00:21 | 40.48721 | -74.49997 | 6334 ft | 273 kts | 137° |
| 2026-04-24 00:21 | 40.47322 | -74.48320 | 6045 ft | 269 kts | 137° |
| 2026-04-24 00:21 | 40.45954 | -74.46688 | 5690 ft | 267 kts | 137° |
| 2026-04-24 00:21 | 40.44583 | -74.45056 | 5330 ft | 264 kts | 137° |
| 2026-04-24 00:22 | 40.43230 | -74.43456 | 5002 ft | 260 kts | 137° |
| 2026-04-24 00:22 | 40.42068 | -74.41698 | 4579 ft | 258 kts | 113° |
| 2026-04-24 00:22 | 40.41660 | -74.39507 | 4041 ft | 241 kts | 84° |
| 2026-04-24 00:22 | 40.42088 | -74.37455 | 3324 ft | 230 kts | 59° |
| 2026-04-24 00:23 | 40.42784 | -74.35686 | 3040 ft | 208 kts | 57° |
| 2026-04-24 00:23 | 40.43433 | -74.34104 | 3020 ft | 193 kts | 53° |
| 2026-04-24 00:23 | 40.44220 | -74.32711 | 3007 ft | 184 kts | 40° |
| 2026-04-24 00:23 | 40.45222 | -74.31684 | 2992 ft | 181 kts | 28° |
| 2026-04-24 00:24 | 40.46304 | -74.30898 | 2996 ft | 179 kts | 23° |
| 2026-04-24 00:24 | 40.47424 | -74.30183 | 2988 ft | 177 kts | 21° |
| 2026-04-24 00:24 | 40.48547 | -74.29494 | 3004 ft | 178 kts | 21° |
| 2026-04-24 00:24 | 40.49663 | -74.28809 | 3006 ft | 178 kts | 21° |
| 2026-04-24 00:25 | 40.50795 | -74.28110 | 3007 ft | 178 kts | 21° |
| 2026-04-24 00:25 | 40.51904 | -74.27416 | 3008 ft | 179 kts | 21° |
| 2026-04-24 00:25 | 40.53024 | -74.26711 | 3008 ft | 178 kts | 21° |
| 2026-04-24 00:25 | 40.54149 | -74.26002 | 2881 ft | 173 kts | 21° |
| 2026-04-24 00:26 | 40.55215 | -74.25335 | 2674 ft | 169 kts | 21° |
| 2026-04-24 00:26 | 40.56231 | -74.24707 | 2469 ft | 156 kts | 20° |
| 2026-04-24 00:26 | 40.57187 | -74.24113 | 2280 ft | 145 kts | 21° |
| 2026-04-24 00:26 | 40.58030 | -74.23565 | 2126 ft | 125 kts | 20° |
| 2026-04-24 00:27 | 40.58793 | -74.23086 | 1945 ft | 124 kts | 19° |
| 2026-04-24 00:27 | 40.59579 | -74.22600 | 1772 ft | 123 kts | 19° |
| 2026-04-24 00:27 | 40.60346 | -74.22105 | 1583 ft | 126 kts | 22° |
| 2026-04-24 00:27 | 40.61148 | -74.21577 | 1451 ft | 129 kts | 20° |
| 2026-04-24 00:28 | 40.61957 | -74.21085 | 1249 ft | 129 kts | 19° |
| 2026-04-24 00:28 | 40.62770 | -74.20596 | 1060 ft | 128 kts | 21° |
| 2026-04-24 00:28 | 40.63553 | -74.20064 | 916 ft | 125 kts | 23° |
| 2026-04-24 00:28 | 40.64352 | -74.19568 | 739 ft | 127 kts | 19° |
| 2026-04-24 00:29 | 40.65169 | -74.19081 | 576 ft | 128 kts | 22° |
| 2026-04-24 00:29 | 40.65966 | -74.18552 | 444 ft | 130 kts | 21° |
| 2026-04-24 00:29 | 40.66799 | -74.18032 | 312 ft | 133 kts | 21° |
| 2026-04-24 00:29 | 40.67633 | -74.17500 | 146 ft | 133 kts | 20° |
| 2026-04-24 00:30 | 40.68448 | -74.16985 | 25 ft | 120 kts | 23° |
| 2026-04-24 00:30 | 40.69014 | -74.16631 | 24 ft | 61 kts | 26° |
| 2026-04-24 00:30 | 40.69295 | -74.16471 | 24 ft | 31 kts | 13° |
| 2026-04-24 00:30 | 40.69468 | -74.16466 | 24 ft | 18 kts | 355° |
| 2026-04-24 00:31 | 40.69572 | -74.16479 | 24 ft | 11 kts | 344° |
| 2026-04-24 00:31 | 40.69585 | -74.16488 | 24 ft | 0 kts | 317° |
| 2026-04-24 00:32 | 40.69615 | -74.16540 | 24 ft | 16 kts | 300° |
| 2026-04-24 00:32 | 40.69669 | -74.16682 | 24 ft | 14 kts | 296° |
| 2026-04-24 00:32 | 40.69677 | -74.16797 | 24 ft | 11 kts | 257° |
| 2026-04-24 00:32 | 40.69654 | -74.16888 | 24 ft | 8 kts | 248° |
| 2026-04-24 00:33 | 40.69638 | -74.16942 | 24 ft | 4 kts | 250° |
| 2026-04-24 00:33 | 40.69618 | -74.17014 | 24 ft | 10 kts | 251° |
| 2026-04-24 00:33 | 40.69612 | -74.17094 | 24 ft | 7 kts | 297° |
| 2026-04-24 00:33 | 40.69659 | -74.17144 | 24 ft | 8 kts | 329° |
| 2026-04-24 00:34 | 40.69706 | -74.17181 | 24 ft | 8 kts | 328° |
| 2026-04-24 00:34 | 40.69751 | -74.17222 | 25 ft | 9 kts | 321° |
| 2026-04-24 00:34 | 40.69805 | -74.17290 | 25 ft | 11 kts | 313° |
| 2026-04-24 00:34 | 40.69851 | -74.17361 | 25 ft | 8 kts | 305° |
| 2026-04-24 00:35 | 40.69879 | -74.17426 | 25 ft | 7 kts | 290° |
| 2026-04-24 00:35 | 40.69893 | -74.17493 | 24 ft | 7 kts | 284° |
| 2026-04-24 00:35 | 40.69903 | -74.17554 | 25 ft | 5 kts | 279° |
| 2026-04-24 00:35 | 40.69917 | -74.17621 | 25 ft | 9 kts | 296° |
| 2026-04-24 00:36 | 40.69959 | -74.17703 | 25 ft | 12 kts | 306° |
| 2026-04-24 00:36 | 40.69988 | -74.17809 | 25 ft | 11 kts | 276° |
| 2026-04-24 00:36 | 40.69994 | -74.17908 | 25 ft | 10 kts | 272° |
| 2026-04-24 00:36 | 40.69968 | -74.17954 | 25 ft | 3 kts | 182° |
| 2026-04-24 00:37 | 40.69941 | -74.17954 | 24 ft | 4 kts | 182° |
| 2026-04-24 00:37 | 40.69925 | -74.17954 | 24 ft | 0 kts | 182° |
| 2026-04-24 00:37 | 40.69921 | -74.17955 | 24 ft | 0 kts | 182° |